sensor_id;sensor_type;location;lat;lon;timestamp;P1;durP1;ratioP1;P2;durP2;ratioP2
57822;SDS011;43650;48.064;20.624;2022-12-20T00:00:50;15.53;;;6.80;;
57822;SDS011;43650;48.064;20.624;2022-12-20T00:01:51;16.55;;;7.47;;
57822;SDS011;43650;48.064;20.624;2022-12-20T00:02:51;16.60;;;6.23;;
57822;SDS011;43650;48.064;20.624;2022-12-20T00:03:52;14.03;;;5.93;;
57822;SDS011;43650;48.064;20.624;2022-12-20T00:04:53;14.30;;;6.18;;
57822;SDS011;43650;48.064;20.624;2022-12-20T00:05:53;14.77;;;6.27;;
57822;SDS011;43650;48.064;20.624;2022-12-20T00:06:54;17.73;;;6.93;;
57822;SDS011;43650;48.064;20.624;2022-12-20T00:07:54;17.67;;;8.83;;
57822;SDS011;43650;48.064;20.624;2022-12-20T00:08:56;16.23;;;8.43;;
57822;SDS011;43650;48.064;20.624;2022-12-20T00:09:58;16.08;;;6.28;;
57822;SDS011;43650;48.064;20.624;2022-12-20T00:10:58;17.20;;;8.73;;
57822;SDS011;43650;48.064;20.624;2022-12-20T00:13:00;10.23;;;5.43;;
57822;SDS011;43650;48.064;20.624;2022-12-20T00:14:00;18.43;;;6.50;;
57822;SDS011;43650;48.064;20.624;2022-12-20T00:15:01;18.03;;;6.77;;
57822;SDS011;43650;48.064;20.624;2022-12-20T00:17:08;17.65;;;6.90;;
57822;SDS011;43650;48.064;20.624;2022-12-20T00:18:09;13.03;;;6.37;;
57822;SDS011;43650;48.064;20.624;2022-12-20T00:19:09;11.10;;;6.23;;
57822;SDS011;43650;48.064;20.624;2022-12-20T00:20:10;17.73;;;6.12;;
57822;SDS011;43650;48.064;20.624;2022-12-20T00:21:12;13.23;;;5.95;;
57822;SDS011;43650;48.064;20.624;2022-12-20T00:22:13;16.30;;;5.75;;
57822;SDS011;43650;48.064;20.624;2022-12-20T00:23:13;14.70;;;6.93;;
57822;SDS011;43650;48.064;20.624;2022-12-20T00:24:14;16.17;;;7.10;;
57822;SDS011;43650;48.064;20.624;2022-12-20T00:25:14;17.30;;;6.30;;
57822;SDS011;43650;48.064;20.624;2022-12-20T00:26:16;13.33;;;6.40;;
57822;SDS011;43650;48.064;20.624;2022-12-20T00:27:18;18.75;;;5.87;;
57822;SDS011;43650;48.064;20.624;2022-12-20T00:28:19;17.00;;;7.07;;
57822;SDS011;43650;48.064;20.624;2022-12-20T00:29:19;25.67;;;9.77;;
57822;SDS011;43650;48.064;20.624;2022-12-20T00:30:19;13.07;;;6.37;;
57822;SDS011;43650;48.064;20.624;2022-12-20T00:31:21;14.00;;;5.57;;
57822;SDS011;43650;48.064;20.624;2022-12-20T00:32:22;11.35;;;5.62;;
57822;SDS011;43650;48.064;20.624;2022-12-20T00:33:23;11.50;;;6.23;;
57822;SDS011;43650;48.064;20.624;2022-12-20T00:34:23;12.52;;;5.72;;
57822;SDS011;43650;48.064;20.624;2022-12-20T00:35:24;10.03;;;5.50;;
57822;SDS011;43650;48.064;20.624;2022-12-20T00:36:27;11.07;;;4.93;;
57822;SDS011;43650;48.064;20.624;2022-12-20T00:37:28;11.35;;;5.82;;
57822;SDS011;43650;48.064;20.624;2022-12-20T00:38:29;12.40;;;5.30;;
57822;SDS011;43650;48.064;20.624;2022-12-20T00:39:29;10.50;;;4.43;;
57822;SDS011;43650;48.064;20.624;2022-12-20T00:40:30;10.13;;;4.83;;
57822;SDS011;43650;48.064;20.624;2022-12-20T00:41:31;13.63;;;5.83;;
57822;SDS011;43650;48.064;20.624;2022-12-20T00:42:32;11.35;;;5.03;;
57822;SDS011;43650;48.064;20.624;2022-12-20T00:43:33;10.10;;;4.77;;
57822;SDS011;43650;48.064;20.624;2022-12-20T00:44:33;16.37;;;5.57;;
57822;SDS011;43650;48.064;20.624;2022-12-20T00:45:34;13.75;;;7.00;;
57822;SDS011;43650;48.064;20.624;2022-12-20T00:46:35;15.40;;;5.73;;
57822;SDS011;43650;48.064;20.624;2022-12-20T00:47:35;17.60;;;6.37;;
57822;SDS011;43650;48.064;20.624;2022-12-20T00:48:36;16.53;;;6.43;;
57822;SDS011;43650;48.064;20.624;2022-12-20T00:49:36;23.75;;;9.13;;
57822;SDS011;43650;48.064;20.624;2022-12-20T00:50:37;17.27;;;9.10;;
57822;SDS011;43650;48.064;20.624;2022-12-20T00:51:37;17.25;;;8.32;;
57822;SDS011;43650;48.064;20.624;2022-12-20T00:52:38;14.40;;;7.43;;
57822;SDS011;43650;48.064;20.624;2022-12-20T00:53:38;14.77;;;7.90;;
57822;SDS011;43650;48.064;20.624;2022-12-20T00:54:39;16.73;;;7.07;;
57822;SDS011;43650;48.064;20.624;2022-12-20T00:55:40;15.70;;;7.03;;
57822;SDS011;43650;48.064;20.624;2022-12-20T00:56:41;20.10;;;6.87;;
57822;SDS011;43650;48.064;20.624;2022-12-20T00:57:42;13.13;;;7.23;;
57822;SDS011;43650;48.064;20.624;2022-12-20T00:58:42;10.93;;;5.53;;
57822;SDS011;43650;48.064;20.624;2022-12-20T00:59:43;10.90;;;5.30;;
57822;SDS011;43650;48.064;20.624;2022-12-20T01:00:44;16.53;;;8.00;;
57822;SDS011;43650;48.064;20.624;2022-12-20T01:01:45;19.63;;;7.83;;
57822;SDS011;43650;48.064;20.624;2022-12-20T01:02:46;15.27;;;6.95;;
57822;SDS011;43650;48.064;20.624;2022-12-20T01:03:47;17.13;;;7.40;;
57822;SDS011;43650;48.064;20.624;2022-12-20T01:04:48;14.35;;;6.82;;
57822;SDS011;43650;48.064;20.624;2022-12-20T01:05:50;18.37;;;8.23;;
57822;SDS011;43650;48.064;20.624;2022-12-20T01:06:52;17.55;;;7.80;;
57822;SDS011;43650;48.064;20.624;2022-12-20T01:07:52;18.03;;;8.20;;
57822;SDS011;43650;48.064;20.624;2022-12-20T01:08:53;17.13;;;7.47;;
57822;SDS011;43650;48.064;20.624;2022-12-20T01:09:54;18.77;;;7.60;;
57822;SDS011;43650;48.064;20.624;2022-12-20T01:11:08;13.20;;;6.57;;
57822;SDS011;43650;48.064;20.624;2022-12-20T01:12:11;11.68;;;5.65;;
57822;SDS011;43650;48.064;20.624;2022-12-20T01:13:12;17.63;;;7.07;;
57822;SDS011;43650;48.064;20.624;2022-12-20T01:14:14;9.80;;;4.83;;
57822;SDS011;43650;48.064;20.624;2022-12-20T01:15:15;15.68;;;5.75;;
57822;SDS011;43650;48.064;20.624;2022-12-20T01:16:20;12.45;;;6.03;;
57822;SDS011;43650;48.064;20.624;2022-12-20T01:17:22;12.77;;;6.35;;
57822;SDS011;43650;48.064;20.624;2022-12-20T01:18:22;13.07;;;6.53;;
57822;SDS011;43650;48.064;20.624;2022-12-20T01:19:22;14.40;;;6.93;;
57822;SDS011;43650;48.064;20.624;2022-12-20T01:20:23;12.65;;;6.12;;
57822;SDS011;43650;48.064;20.624;2022-12-20T01:21:24;11.20;;;5.70;;
57822;SDS011;43650;48.064;20.624;2022-12-20T01:22:25;12.40;;;5.25;;
57822;SDS011;43650;48.064;20.624;2022-12-20T01:23:26;13.67;;;6.80;;
57822;SDS011;43650;48.064;20.624;2022-12-20T01:24:27;14.27;;;5.62;;
57822;SDS011;43650;48.064;20.624;2022-12-20T01:25:27;12.60;;;5.20;;
57822;SDS011;43650;48.064;20.624;2022-12-20T01:26:28;14.07;;;6.67;;
57822;SDS011;43650;48.064;20.624;2022-12-20T01:27:29;14.95;;;6.97;;
57822;SDS011;43650;48.064;20.624;2022-12-20T01:28:29;12.60;;;6.07;;
57822;SDS011;43650;48.064;20.624;2022-12-20T01:29:30;14.23;;;5.18;;
57822;SDS011;43650;48.064;20.624;2022-12-20T01:30:31;13.10;;;5.53;;
57822;SDS011;43650;48.064;20.624;2022-12-20T01:31:31;16.40;;;6.13;;
57822;SDS011;43650;48.064;20.624;2022-12-20T01:32:32;14.43;;;6.33;;
57822;SDS011;43650;48.064;20.624;2022-12-20T01:33:32;14.57;;;6.77;;
57822;SDS011;43650;48.064;20.624;2022-12-20T01:34:33;11.68;;;5.78;;
57822;SDS011;43650;48.064;20.624;2022-12-20T01:35:33;12.00;;;4.80;;
57822;SDS011;43650;48.064;20.624;2022-12-20T01:36:34;14.87;;;6.17;;
57822;SDS011;43650;48.064;20.624;2022-12-20T01:37:37;11.27;;;5.20;;
57822;SDS011;43650;48.064;20.624;2022-12-20T01:38:37;12.70;;;6.33;;
57822;SDS011;43650;48.064;20.624;2022-12-20T01:39:37;15.40;;;5.77;;
57822;SDS011;43650;48.064;20.624;2022-12-20T01:40:38;9.90;;;3.77;;
57822;SDS011;43650;48.064;20.624;2022-12-20T01:41:39;13.30;;;6.00;;
57822;SDS011;43650;48.064;20.624;2022-12-20T01:42:40;13.75;;;5.75;;
57822;SDS011;43650;48.064;20.624;2022-12-20T01:45:45;11.67;;;4.70;;
57822;SDS011;43650;48.064;20.624;2022-12-20T01:46:46;15.50;;;5.95;;
57822;SDS011;43650;48.064;20.624;2022-12-20T01:47:48;10.15;;;4.45;;
57822;SDS011;43650;48.064;20.624;2022-12-20T01:48:53;14.40;;;5.80;;
57822;SDS011;43650;48.064;20.624;2022-12-20T01:49:55;11.77;;;5.10;;
57822;SDS011;43650;48.064;20.624;2022-12-20T01:50:57;12.98;;;4.90;;
57822;SDS011;43650;48.064;20.624;2022-12-20T01:51:59;13.20;;;6.17;;
57822;SDS011;43650;48.064;20.624;2022-12-20T01:53:05;13.07;;;4.97;;
57822;SDS011;43650;48.064;20.624;2022-12-20T01:55:59;10.60;;;5.12;;
57822;SDS011;43650;48.064;20.624;2022-12-20T01:57:04;14.00;;;5.05;;
57822;SDS011;43650;48.064;20.624;2022-12-20T01:58:10;11.40;;;4.97;;
57822;SDS011;43650;48.064;20.624;2022-12-20T01:59:11;11.75;;;4.72;;
57822;SDS011;43650;48.064;20.624;2022-12-20T02:00:12;15.45;;;5.28;;
57822;SDS011;43650;48.064;20.624;2022-12-20T02:01:13;11.00;;;5.10;;
57822;SDS011;43650;48.064;20.624;2022-12-20T02:02:13;11.80;;;4.43;;
57822;SDS011;43650;48.064;20.624;2022-12-20T02:03:14;13.87;;;5.73;;
57822;SDS011;43650;48.064;20.624;2022-12-20T02:04:15;11.75;;;5.50;;
57822;SDS011;43650;48.064;20.624;2022-12-20T02:05:17;10.02;;;5.57;;
57822;SDS011;43650;48.064;20.624;2022-12-20T02:06:20;14.48;;;4.80;;
57822;SDS011;43650;48.064;20.624;2022-12-20T02:07:25;13.38;;;5.00;;
57822;SDS011;43650;48.064;20.624;2022-12-20T02:08:26;12.75;;;5.40;;
57822;SDS011;43650;48.064;20.624;2022-12-20T02:09:26;9.47;;;4.77;;
57822;SDS011;43650;48.064;20.624;2022-12-20T02:10:29;12.03;;;5.60;;
57822;SDS011;43650;48.064;20.624;2022-12-20T02:12:08;10.55;;;4.72;;
57822;SDS011;43650;48.064;20.624;2022-12-20T02:13:12;10.60;;;4.78;;
57822;SDS011;43650;48.064;20.624;2022-12-20T02:15:49;12.73;;;4.50;;
57822;SDS011;43650;48.064;20.624;2022-12-20T02:18:43;13.38;;;6.18;;
57822;SDS011;43650;48.064;20.624;2022-12-20T02:19:53;10.80;;;4.60;;
57822;SDS011;43650;48.064;20.624;2022-12-20T02:28:09;12.35;;;5.07;;
57822;SDS011;43650;48.064;20.624;2022-12-20T02:30:37;11.70;;;5.43;;
57822;SDS011;43650;48.064;20.624;2022-12-20T02:31:42;13.02;;;5.97;;
57822;SDS011;43650;48.064;20.624;2022-12-20T02:33:01;10.82;;;5.32;;
57822;SDS011;43650;48.064;20.624;2022-12-20T02:34:03;13.05;;;4.82;;
57822;SDS011;43650;48.064;20.624;2022-12-20T02:36:06;17.42;;;5.22;;
57822;SDS011;43650;48.064;20.624;2022-12-20T02:37:07;10.60;;;4.93;;
57822;SDS011;43650;48.064;20.624;2022-12-20T02:38:28;12.82;;;5.22;;
57822;SDS011;43650;48.064;20.624;2022-12-20T02:39:33;9.82;;;4.95;;
57822;SDS011;43650;48.064;20.624;2022-12-20T02:40:39;14.07;;;5.43;;
57822;SDS011;43650;48.064;20.624;2022-12-20T02:41:47;15.68;;;6.03;;
57822;SDS011;43650;48.064;20.624;2022-12-20T02:42:51;11.05;;;4.53;;
57822;SDS011;43650;48.064;20.624;2022-12-20T02:44:00;11.75;;;5.50;;
57822;SDS011;43650;48.064;20.624;2022-12-20T02:45:25;13.80;;;4.43;;
57822;SDS011;43650;48.064;20.624;2022-12-20T02:46:28;7.50;;;5.05;;
57822;SDS011;43650;48.064;20.624;2022-12-20T02:48:31;13.88;;;4.65;;
57822;SDS011;43650;48.064;20.624;2022-12-20T02:49:33;10.00;;;4.60;;
57822;SDS011;43650;48.064;20.624;2022-12-20T02:50:43;9.32;;;4.37;;
57822;SDS011;43650;48.064;20.624;2022-12-20T02:51:46;10.90;;;5.03;;
57822;SDS011;43650;48.064;20.624;2022-12-20T02:52:48;11.40;;;4.57;;
57822;SDS011;43650;48.064;20.624;2022-12-20T02:54:49;10.77;;;4.72;;
57822;SDS011;43650;48.064;20.624;2022-12-20T02:55:54;11.00;;;5.13;;
57822;SDS011;43650;48.064;20.624;2022-12-20T02:57:03;13.88;;;5.43;;
57822;SDS011;43650;48.064;20.624;2022-12-20T02:58:26;14.98;;;4.57;;
57822;SDS011;43650;48.064;20.624;2022-12-20T02:59:38;13.75;;;5.68;;
57822;SDS011;43650;48.064;20.624;2022-12-20T03:00:41;14.25;;;4.70;;
57822;SDS011;43650;48.064;20.624;2022-12-20T03:01:46;11.63;;;4.93;;
57822;SDS011;43650;48.064;20.624;2022-12-20T03:02:49;16.75;;;5.85;;
57822;SDS011;43650;48.064;20.624;2022-12-20T03:04:08;9.73;;;4.25;;
57822;SDS011;43650;48.064;20.624;2022-12-20T03:05:09;10.93;;;4.37;;
57822;SDS011;43650;48.064;20.624;2022-12-20T03:06:09;16.33;;;5.27;;
57822;SDS011;43650;48.064;20.624;2022-12-20T03:07:12;14.17;;;4.37;;
57822;SDS011;43650;48.064;20.624;2022-12-20T03:08:13;10.05;;;5.30;;
57822;SDS011;43650;48.064;20.624;2022-12-20T03:09:13;12.80;;;5.43;;
57822;SDS011;43650;48.064;20.624;2022-12-20T03:10:14;9.00;;;4.47;;
57822;SDS011;43650;48.064;20.624;2022-12-20T03:11:15;15.45;;;6.55;;
57822;SDS011;43650;48.064;20.624;2022-12-20T03:12:16;15.00;;;6.20;;
57822;SDS011;43650;48.064;20.624;2022-12-20T03:13:16;11.23;;;4.90;;
57822;SDS011;43650;48.064;20.624;2022-12-20T03:14:17;10.45;;;4.25;;
57822;SDS011;43650;48.064;20.624;2022-12-20T03:15:17;10.37;;;4.53;;
57822;SDS011;43650;48.064;20.624;2022-12-20T03:16:18;12.85;;;5.20;;
57822;SDS011;43650;48.064;20.624;2022-12-20T03:17:19;10.90;;;5.13;;
57822;SDS011;43650;48.064;20.624;2022-12-20T03:18:19;12.20;;;5.83;;
57822;SDS011;43650;48.064;20.624;2022-12-20T03:19:20;19.70;;;5.62;;
57822;SDS011;43650;48.064;20.624;2022-12-20T03:20:20;15.83;;;5.97;;
57822;SDS011;43650;48.064;20.624;2022-12-20T03:21:21;12.93;;;5.20;;
57822;SDS011;43650;48.064;20.624;2022-12-20T03:22:21;14.00;;;6.00;;
57822;SDS011;43650;48.064;20.624;2022-12-20T03:23:22;13.48;;;6.03;;
57822;SDS011;43650;48.064;20.624;2022-12-20T03:24:23;13.90;;;6.03;;
57822;SDS011;43650;48.064;20.624;2022-12-20T03:25:23;14.57;;;6.75;;
57822;SDS011;43650;48.064;20.624;2022-12-20T03:26:24;18.50;;;7.10;;
57822;SDS011;43650;48.064;20.624;2022-12-20T03:27:25;15.13;;;6.10;;
57822;SDS011;43650;48.064;20.624;2022-12-20T03:28:27;15.43;;;6.87;;
57822;SDS011;43650;48.064;20.624;2022-12-20T03:29:27;13.10;;;5.57;;
57822;SDS011;43650;48.064;20.624;2022-12-20T03:30:28;16.27;;;5.87;;
57822;SDS011;43650;48.064;20.624;2022-12-20T03:31:28;11.90;;;5.73;;
57822;SDS011;43650;48.064;20.624;2022-12-20T03:32:28;12.17;;;6.27;;
57822;SDS011;43650;48.064;20.624;2022-12-20T03:33:29;10.43;;;5.40;;
57822;SDS011;43650;48.064;20.624;2022-12-20T03:34:29;11.83;;;6.67;;
57822;SDS011;43650;48.064;20.624;2022-12-20T03:35:30;15.87;;;7.03;;
57822;SDS011;43650;48.064;20.624;2022-12-20T03:36:30;15.20;;;6.13;;
57822;SDS011;43650;48.064;20.624;2022-12-20T03:37:31;18.67;;;7.28;;
57822;SDS011;43650;48.064;20.624;2022-12-20T03:38:31;14.10;;;6.00;;
57822;SDS011;43650;48.064;20.624;2022-12-20T03:39:31;11.30;;;6.03;;
57822;SDS011;43650;48.064;20.624;2022-12-20T03:40:32;14.10;;;5.57;;
57822;SDS011;43650;48.064;20.624;2022-12-20T03:41:32;13.63;;;5.90;;
57822;SDS011;43650;48.064;20.624;2022-12-20T03:42:33;16.63;;;6.70;;
57822;SDS011;43650;48.064;20.624;2022-12-20T03:43:33;16.48;;;7.68;;
57822;SDS011;43650;48.064;20.624;2022-12-20T03:44:34;15.67;;;7.00;;
57822;SDS011;43650;48.064;20.624;2022-12-20T03:45:34;20.98;;;8.07;;
57822;SDS011;43650;48.064;20.624;2022-12-20T03:46:35;16.03;;;6.93;;
57822;SDS011;43650;48.064;20.624;2022-12-20T03:47:35;14.63;;;6.17;;
57822;SDS011;43650;48.064;20.624;2022-12-20T03:48:36;18.87;;;7.57;;
57822;SDS011;43650;48.064;20.624;2022-12-20T03:49:36;17.93;;;6.47;;
57822;SDS011;43650;48.064;20.624;2022-12-20T03:50:36;20.83;;;6.40;;
57822;SDS011;43650;48.064;20.624;2022-12-20T03:51:37;20.37;;;8.03;;
57822;SDS011;43650;48.064;20.624;2022-12-20T03:52:37;16.80;;;7.50;;
57822;SDS011;43650;48.064;20.624;2022-12-20T03:53:38;18.97;;;6.83;;
57822;SDS011;43650;48.064;20.624;2022-12-20T03:54:38;14.67;;;6.30;;
57822;SDS011;43650;48.064;20.624;2022-12-20T03:55:39;18.17;;;7.00;;
57822;SDS011;43650;48.064;20.624;2022-12-20T03:56:39;19.57;;;7.90;;
57822;SDS011;43650;48.064;20.624;2022-12-20T03:57:39;18.77;;;7.60;;
57822;SDS011;43650;48.064;20.624;2022-12-20T03:58:41;20.37;;;8.43;;
57822;SDS011;43650;48.064;20.624;2022-12-20T03:59:41;15.17;;;6.63;;
57822;SDS011;43650;48.064;20.624;2022-12-20T04:00:42;19.15;;;7.15;;
57822;SDS011;43650;48.064;20.624;2022-12-20T04:01:42;15.97;;;6.27;;
57822;SDS011;43650;48.064;20.624;2022-12-20T04:02:43;17.43;;;8.10;;
57822;SDS011;43650;48.064;20.624;2022-12-20T04:03:43;15.00;;;7.17;;
57822;SDS011;43650;48.064;20.624;2022-12-20T04:04:44;18.50;;;7.37;;
57822;SDS011;43650;48.064;20.624;2022-12-20T04:05:44;15.40;;;6.83;;
57822;SDS011;43650;48.064;20.624;2022-12-20T04:06:45;18.80;;;9.77;;
57822;SDS011;43650;48.064;20.624;2022-12-20T04:07:45;21.27;;;9.07;;
57822;SDS011;43650;48.064;20.624;2022-12-20T04:08:46;23.33;;;9.20;;
57822;SDS011;43650;48.064;20.624;2022-12-20T04:09:46;16.87;;;7.40;;
57822;SDS011;43650;48.064;20.624;2022-12-20T04:10:46;14.27;;;6.60;;
57822;SDS011;43650;48.064;20.624;2022-12-20T04:12:05;14.52;;;5.90;;
57822;SDS011;43650;48.064;20.624;2022-12-20T04:13:06;19.83;;;7.95;;
57822;SDS011;43650;48.064;20.624;2022-12-20T04:14:06;20.23;;;8.50;;
57822;SDS011;43650;48.064;20.624;2022-12-20T04:15:07;18.30;;;7.20;;
57822;SDS011;43650;48.064;20.624;2022-12-20T04:16:08;18.20;;;8.05;;
57822;SDS011;43650;48.064;20.624;2022-12-20T04:17:10;17.12;;;7.93;;
57822;SDS011;43650;48.064;20.624;2022-12-20T04:18:10;18.40;;;7.37;;
57822;SDS011;43650;48.064;20.624;2022-12-20T04:19:10;21.93;;;8.97;;
57822;SDS011;43650;48.064;20.624;2022-12-20T04:20:12;18.47;;;8.30;;
57822;SDS011;43650;48.064;20.624;2022-12-20T04:21:21;19.10;;;7.00;;
57822;SDS011;43650;48.064;20.624;2022-12-20T04:22:25;14.45;;;7.25;;
57822;SDS011;43650;48.064;20.624;2022-12-20T04:23:26;20.73;;;7.67;;
57822;SDS011;43650;48.064;20.624;2022-12-20T04:24:26;12.67;;;6.43;;
57822;SDS011;43650;48.064;20.624;2022-12-20T04:25:26;20.43;;;7.70;;
57822;SDS011;43650;48.064;20.624;2022-12-20T04:26:27;18.77;;;8.53;;
57822;SDS011;43650;48.064;20.624;2022-12-20T04:27:28;21.15;;;7.93;;
57822;SDS011;43650;48.064;20.624;2022-12-20T04:28:28;16.10;;;7.17;;
57822;SDS011;43650;48.064;20.624;2022-12-20T04:29:29;16.13;;;7.30;;
57822;SDS011;43650;48.064;20.624;2022-12-20T04:30:30;19.83;;;7.82;;
57822;SDS011;43650;48.064;20.624;2022-12-20T04:31:30;18.10;;;7.70;;
57822;SDS011;43650;48.064;20.624;2022-12-20T04:32:31;21.77;;;7.70;;
57822;SDS011;43650;48.064;20.624;2022-12-20T04:33:31;17.77;;;6.70;;
57822;SDS011;43650;48.064;20.624;2022-12-20T04:34:32;17.60;;;6.80;;
57822;SDS011;43650;48.064;20.624;2022-12-20T04:35:32;16.53;;;8.20;;
57822;SDS011;43650;48.064;20.624;2022-12-20T04:36:32;14.63;;;7.00;;
57822;SDS011;43650;48.064;20.624;2022-12-20T04:37:33;22.60;;;7.30;;
57822;SDS011;43650;48.064;20.624;2022-12-20T04:38:34;22.07;;;8.57;;
57822;SDS011;43650;48.064;20.624;2022-12-20T04:39:34;16.15;;;8.02;;
57822;SDS011;43650;48.064;20.624;2022-12-20T04:40:35;23.13;;;8.97;;
57822;SDS011;43650;48.064;20.624;2022-12-20T04:41:35;22.00;;;8.37;;
57822;SDS011;43650;48.064;20.624;2022-12-20T04:42:35;16.77;;;7.93;;
57822;SDS011;43650;48.064;20.624;2022-12-20T04:43:36;16.13;;;7.43;;
57822;SDS011;43650;48.064;20.624;2022-12-20T04:44:36;22.50;;;9.00;;
57822;SDS011;43650;48.064;20.624;2022-12-20T04:45:37;24.40;;;10.37;;
57822;SDS011;43650;48.064;20.624;2022-12-20T04:46:37;19.87;;;9.23;;
57822;SDS011;43650;48.064;20.624;2022-12-20T04:47:38;20.00;;;8.60;;
57822;SDS011;43650;48.064;20.624;2022-12-20T04:48:38;79.90;;;35.47;;
57822;SDS011;43650;48.064;20.624;2022-12-20T04:49:39;55.42;;;25.27;;
57822;SDS011;43650;48.064;20.624;2022-12-20T04:50:40;39.70;;;17.60;;
57822;SDS011;43650;48.064;20.624;2022-12-20T04:51:40;29.90;;;13.53;;
57822;SDS011;43650;48.064;20.624;2022-12-20T04:52:40;21.43;;;9.03;;
57822;SDS011;43650;48.064;20.624;2022-12-20T04:53:59;21.55;;;7.12;;
57822;SDS011;43650;48.064;20.624;2022-12-20T04:54:59;22.40;;;9.80;;
57822;SDS011;43650;48.064;20.624;2022-12-20T04:56:00;93.33;;;34.67;;
57822;SDS011;43650;48.064;20.624;2022-12-20T04:57:01;47.03;;;18.95;;
57822;SDS011;43650;48.064;20.624;2022-12-20T04:58:01;23.17;;;10.03;;
57822;SDS011;43650;48.064;20.624;2022-12-20T04:59:02;59.80;;;19.17;;
57822;SDS011;43650;48.064;20.624;2022-12-20T05:00:03;25.27;;;10.43;;
57822;SDS011;43650;48.064;20.624;2022-12-20T05:01:03;45.95;;;18.75;;
57822;SDS011;43650;48.064;20.624;2022-12-20T05:02:04;24.83;;;9.23;;
57822;SDS011;43650;48.064;20.624;2022-12-20T05:03:04;23.70;;;7.53;;
57822;SDS011;43650;48.064;20.624;2022-12-20T05:04:04;20.30;;;7.47;;
57822;SDS011;43650;48.064;20.624;2022-12-20T05:05:05;18.63;;;6.97;;
57822;SDS011;43650;48.064;20.624;2022-12-20T05:06:06;25.02;;;7.53;;
57822;SDS011;43650;48.064;20.624;2022-12-20T05:07:07;16.35;;;8.48;;
57822;SDS011;43650;48.064;20.624;2022-12-20T05:08:07;20.07;;;7.83;;
57822;SDS011;43650;48.064;20.624;2022-12-20T05:09:08;16.97;;;8.60;;
57822;SDS011;43650;48.064;20.624;2022-12-20T05:10:08;21.60;;;9.50;;
57822;SDS011;43650;48.064;20.624;2022-12-20T05:11:09;26.85;;;8.73;;
57822;SDS011;43650;48.064;20.624;2022-12-20T05:12:10;35.22;;;13.95;;
57822;SDS011;43650;48.064;20.624;2022-12-20T05:13:10;26.60;;;10.93;;
57822;SDS011;43650;48.064;20.624;2022-12-20T05:14:11;22.57;;;10.27;;
57822;SDS011;43650;48.064;20.624;2022-12-20T05:15:11;25.23;;;8.50;;
57822;SDS011;43650;48.064;20.624;2022-12-20T05:16:12;23.97;;;9.07;;
57822;SDS011;43650;48.064;20.624;2022-12-20T05:17:12;21.02;;;10.05;;
57822;SDS011;43650;48.064;20.624;2022-12-20T05:18:13;23.20;;;11.07;;
57822;SDS011;43650;48.064;20.624;2022-12-20T05:19:13;20.97;;;8.83;;
57822;SDS011;43650;48.064;20.624;2022-12-20T05:20:13;17.07;;;8.40;;
57822;SDS011;43650;48.064;20.624;2022-12-20T05:21:14;20.47;;;10.07;;
57822;SDS011;43650;48.064;20.624;2022-12-20T05:22:33;27.55;;;10.77;;
57822;SDS011;43650;48.064;20.624;2022-12-20T05:24:09;23.12;;;10.65;;
57822;SDS011;43650;48.064;20.624;2022-12-20T05:25:28;25.52;;;10.40;;
57822;SDS011;43650;48.064;20.624;2022-12-20T05:26:47;36.03;;;13.90;;
57822;SDS011;43650;48.064;20.624;2022-12-20T05:27:47;64.67;;;26.50;;
57822;SDS011;43650;48.064;20.624;2022-12-20T05:28:48;68.83;;;27.90;;
57822;SDS011;43650;48.064;20.624;2022-12-20T05:29:48;44.53;;;21.60;;
57822;SDS011;43650;48.064;20.624;2022-12-20T05:30:49;37.47;;;17.13;;
57822;SDS011;43650;48.064;20.624;2022-12-20T05:31:49;25.30;;;11.23;;
57822;SDS011;43650;48.064;20.624;2022-12-20T05:32:49;19.90;;;10.00;;
57822;SDS011;43650;48.064;20.624;2022-12-20T05:33:50;20.05;;;9.40;;
57822;SDS011;43650;48.064;20.624;2022-12-20T05:34:51;21.43;;;8.30;;
57822;SDS011;43650;48.064;20.624;2022-12-20T05:35:51;15.83;;;6.47;;
57822;SDS011;43650;48.064;20.624;2022-12-20T05:36:52;14.50;;;6.57;;
57822;SDS011;43650;48.064;20.624;2022-12-20T05:37:52;20.97;;;9.17;;
57822;SDS011;43650;48.064;20.624;2022-12-20T05:38:52;16.93;;;7.87;;
57822;SDS011;43650;48.064;20.624;2022-12-20T05:39:53;18.37;;;9.13;;
57822;SDS011;43650;48.064;20.624;2022-12-20T05:40:53;18.67;;;8.33;;
57822;SDS011;43650;48.064;20.624;2022-12-20T05:41:54;15.27;;;7.93;;
57822;SDS011;43650;48.064;20.624;2022-12-20T05:42:54;15.50;;;7.23;;
57822;SDS011;43650;48.064;20.624;2022-12-20T05:43:55;21.13;;;8.27;;
57822;SDS011;43650;48.064;20.624;2022-12-20T05:44:55;17.77;;;7.70;;
57822;SDS011;43650;48.064;20.624;2022-12-20T05:45:55;21.83;;;8.43;;
57822;SDS011;43650;48.064;20.624;2022-12-20T05:46:56;19.17;;;8.90;;
57822;SDS011;43650;48.064;20.624;2022-12-20T05:47:56;21.57;;;8.30;;
57822;SDS011;43650;48.064;20.624;2022-12-20T05:48:57;25.43;;;12.00;;
57822;SDS011;43650;48.064;20.624;2022-12-20T05:49:57;24.63;;;9.10;;
57822;SDS011;43650;48.064;20.624;2022-12-20T05:50:58;22.65;;;9.10;;
57822;SDS011;43650;48.064;20.624;2022-12-20T05:51:59;32.33;;;16.47;;
57822;SDS011;43650;48.064;20.624;2022-12-20T05:53:00;32.63;;;13.13;;
57822;SDS011;43650;48.064;20.624;2022-12-20T05:54:00;33.23;;;13.43;;
57822;SDS011;43650;48.064;20.624;2022-12-20T05:55:01;33.80;;;15.70;;
57822;SDS011;43650;48.064;20.624;2022-12-20T05:56:01;36.27;;;15.53;;
57822;SDS011;43650;48.064;20.624;2022-12-20T05:57:05;32.33;;;13.82;;
57822;SDS011;43650;48.064;20.624;2022-12-20T05:58:05;24.70;;;11.00;;
57822;SDS011;43650;48.064;20.624;2022-12-20T05:59:07;23.17;;;11.20;;
57822;SDS011;43650;48.064;20.624;2022-12-20T06:00:08;56.05;;;23.23;;
57822;SDS011;43650;48.064;20.624;2022-12-20T06:01:10;46.88;;;21.02;;
57822;SDS011;43650;48.064;20.624;2022-12-20T06:02:10;33.93;;;14.60;;
57822;SDS011;43650;48.064;20.624;2022-12-20T06:03:11;30.43;;;13.03;;
57822;SDS011;43650;48.064;20.624;2022-12-20T06:04:12;23.67;;;10.57;;
57822;SDS011;43650;48.064;20.624;2022-12-20T06:05:13;23.90;;;11.00;;
57822;SDS011;43650;48.064;20.624;2022-12-20T06:06:13;22.20;;;10.57;;
57822;SDS011;43650;48.064;20.624;2022-12-20T06:07:13;26.17;;;10.43;;
57822;SDS011;43650;48.064;20.624;2022-12-20T06:08:14;25.80;;;13.17;;
57822;SDS011;43650;48.064;20.624;2022-12-20T06:09:15;30.60;;;13.02;;
57822;SDS011;43650;48.064;20.624;2022-12-20T06:10:15;22.07;;;8.93;;
57822;SDS011;43650;48.064;20.624;2022-12-20T06:11:16;54.23;;;20.87;;
57822;SDS011;43650;48.064;20.624;2022-12-20T06:12:16;21.07;;;10.03;;
57822;SDS011;43650;48.064;20.624;2022-12-20T06:13:17;31.03;;;13.47;;
57822;SDS011;43650;48.064;20.624;2022-12-20T06:14:17;24.73;;;10.97;;
57822;SDS011;43650;48.064;20.624;2022-12-20T06:15:18;27.43;;;13.60;;
57822;SDS011;43650;48.064;20.624;2022-12-20T06:16:18;33.50;;;10.83;;
57822;SDS011;43650;48.064;20.624;2022-12-20T06:18:20;26.62;;;11.32;;
57822;SDS011;43650;48.064;20.624;2022-12-20T06:19:21;26.85;;;11.10;;
57822;SDS011;43650;48.064;20.624;2022-12-20T06:20:22;19.47;;;9.97;;
57822;SDS011;43650;48.064;20.624;2022-12-20T06:21:23;16.30;;;8.00;;
57822;SDS011;43650;48.064;20.624;2022-12-20T06:22:23;31.47;;;14.07;;
57822;SDS011;43650;48.064;20.624;2022-12-20T06:23:23;35.57;;;13.37;;
57822;SDS011;43650;48.064;20.624;2022-12-20T06:24:24;24.47;;;11.40;;